createdAt,value
2019-02-21T00:01:35.629Z,4.50
2019-02-21T00:05:37.508Z,5.20
2019-02-21T00:09:39.401Z,6.53
2019-02-21T00:13:41.284Z,5.45
2019-02-21T00:17:43.200Z,5.77
2019-02-21T00:21:45.081Z,4.37
2019-02-21T00:25:46.969Z,5.50
2019-02-21T00:29:49.131Z,5.43
2019-02-21T00:33:51.010Z,4.77
2019-02-21T00:37:52.954Z,4.37
2019-02-21T00:41:54.790Z,6.00
2019-02-21T00:45:56.682Z,4.57
2019-02-21T00:49:58.586Z,5.30
2019-02-21T00:54:00.477Z,4.47
2019-02-21T00:58:02.365Z,4.50
2019-02-21T01:02:04.372Z,3.73
2019-02-21T01:06:06.428Z,4.27
2019-02-21T01:10:09.360Z,6.17
2019-02-21T01:14:12.226Z,8.93
2019-02-21T01:18:14.103Z,4.40
2019-02-21T01:22:17.119Z,6.80
2019-02-21T01:26:19.076Z,4.40
2019-02-21T01:30:21.016Z,4.57
2019-02-21T01:34:23.032Z,5.17
2019-02-21T01:38:25.681Z,5.53
2019-02-21T01:42:27.573Z,6.60
2019-02-21T01:46:29.466Z,4.60
2019-02-21T01:50:31.707Z,5.60
2019-02-21T01:54:33.746Z,5.42
2019-02-21T01:58:53.999Z,5.90
2019-02-21T02:02:55.911Z,4.53
2019-02-21T02:06:57.828Z,7.60
2019-02-21T02:10:59.749Z,7.33
2019-02-21T02:15:04.020Z,8.93
2019-02-21T02:19:06.078Z,7.90
2019-02-21T02:23:08.964Z,5.83
2019-02-21T02:27:10.859Z,7.17
2019-02-21T02:31:22.060Z,5.23
2019-02-21T02:35:16.422Z,4.50
2019-02-21T02:39:18.483Z,5.60
2019-02-21T02:43:20.360Z,6.43
2019-02-21T02:47:22.261Z,5.20
2019-02-21T02:51:25.397Z,5.07
2019-02-21T02:55:27.306Z,4.70
2019-02-21T02:59:40.319Z,8.43
2019-02-21T03:03:32.821Z,9.63
2019-02-21T03:07:34.745Z,6.03
2019-02-21T03:11:36.653Z,4.73
2019-02-21T03:15:39.559Z,5.17
2019-02-21T03:19:41.464Z,6.57
2019-02-21T03:23:43.372Z,4.93
2019-02-21T03:27:45.371Z,10.00
2019-02-21T03:31:54.598Z,6.80
2019-02-21T03:35:50.951Z,4.77
2019-02-21T03:39:52.843Z,6.53
2019-02-21T03:43:54.783Z,4.60
2019-02-21T03:47:56.677Z,5.80
2019-02-21T03:51:58.643Z,8.00
2019-02-21T03:56:00.520Z,5.33
2019-02-21T04:00:02.557Z,5.73
2019-02-21T04:04:05.845Z,5.23
2019-02-21T04:08:07.792Z,4.70
2019-02-21T04:12:09.669Z,4.90
2019-02-21T04:16:11.575Z,9.90
2019-02-21T04:20:13.564Z,4.40
2019-02-21T04:24:15.469Z,5.60
2019-02-21T04:28:17.407Z,4.50
2019-02-21T04:32:19.456Z,6.80
2019-02-21T04:36:23.456Z,7.23
2019-02-21T04:40:26.595Z,11.60
2019-02-21T04:44:28.501Z,4.60
2019-02-21T04:48:30.413Z,6.90
2019-02-21T04:52:32.338Z,5.63
2019-02-21T04:56:34.254Z,6.47
2019-02-21T05:00:36.227Z,7.00
2019-02-21T05:04:38.142Z,4.87
2019-02-21T05:08:40.055Z,8.70
2019-02-21T05:12:41.969Z,6.92
2019-02-21T05:16:44.690Z,10.37
2019-02-21T05:20:46.661Z,8.70
2019-02-21T05:24:48.587Z,8.77
2019-02-21T05:28:50.505Z,7.83
2019-02-21T05:32:59.826Z,11.23
2019-02-21T05:37:06.465Z,11.53
2019-02-21T05:41:10.001Z,10.00
2019-02-21T05:45:25.597Z,7.20
2019-02-21T05:49:35.340Z,6.27
2019-02-21T05:53:38.892Z,7.50
2019-02-21T05:57:48.507Z,7.27
2019-02-21T06:01:57.809Z,14.07
2019-02-21T06:06:10.125Z,7.33
2019-02-21T06:10:17.259Z,6.57
2019-02-21T06:14:32.885Z,12.53
2019-02-21T06:18:43.519Z,5.90
2019-02-21T06:23:05.147Z,7.00
2019-02-21T06:27:08.686Z,7.07
2019-02-21T06:31:10.915Z,10.97
2019-02-21T06:35:12.996Z,7.20
2019-02-21T06:39:14.919Z,9.85
2019-02-21T06:43:16.959Z,6.47
2019-02-21T06:47:18.848Z,4.97
2019-02-21T06:51:20.767Z,12.50
2019-02-21T06:55:22.686Z,12.47
2019-02-21T06:59:25.869Z,6.00
2019-02-21T07:03:29.071Z,7.57
2019-02-21T07:07:31.010Z,6.50
2019-02-21T07:11:32.930Z,11.00
2019-02-21T07:15:34.849Z,11.07
2019-02-21T07:19:36.766Z,10.47
2019-02-21T07:23:43.466Z,9.43
2019-02-21T07:27:42.337Z,12.65
2019-02-21T07:31:44.298Z,9.63
2019-02-21T07:35:46.203Z,6.23
2019-02-21T07:39:50.767Z,9.13
2019-02-21T07:43:52.022Z,15.80
2019-02-21T07:47:54.059Z,10.60
2019-02-21T07:51:55.968Z,8.50
2019-02-21T07:55:57.872Z,7.33
2019-02-21T07:59:59.815Z,14.97
2019-02-21T08:04:01.707Z,10.90
2019-02-21T08:08:03.618Z,13.17
2019-02-21T08:12:06.505Z,18.43
2019-02-21T08:16:08.406Z,16.70
2019-02-21T08:20:12.715Z,15.73
2019-02-21T08:24:14.660Z,13.63
2019-02-21T08:28:16.548Z,12.17
2019-02-21T08:32:20.087Z,16.97
2019-02-21T08:36:22.002Z,17.85
2019-02-21T08:40:25.129Z,16.27
2019-02-21T08:44:28.922Z,22.97
2019-02-21T08:48:30.682Z,16.97
2019-02-21T08:52:32.578Z,16.87
2019-02-21T08:56:34.481Z,12.80
2019-02-21T09:00:36.584Z,19.27
2019-02-21T09:04:38.500Z,11.63
2019-02-21T09:08:40.392Z,12.53
2019-02-21T09:12:47.134Z,14.93
2019-02-21T09:16:46.072Z,17.20
2019-02-21T09:20:47.983Z,14.30
2019-02-21T09:24:49.917Z,16.33
2019-02-21T09:28:51.805Z,14.07
2019-02-21T09:32:53.717Z,18.37
2019-02-21T09:36:55.623Z,19.60
2019-02-21T09:40:57.527Z,17.03
2019-02-21T09:44:59.427Z,14.27
2019-02-21T09:49:03.022Z,20.43
2019-02-21T09:53:06.153Z,18.80
2019-02-21T09:57:13.329Z,18.80
2019-02-21T10:01:11.687Z,17.63
2019-02-21T10:05:13.778Z,16.83
2019-02-21T10:09:16.632Z,14.70
2019-02-21T10:13:18.556Z,18.40
2019-02-21T10:17:20.462Z,17.67
2019-02-21T10:21:22.471Z,16.17
2019-02-21T10:25:30.356Z,17.23
2019-02-21T10:29:32.240Z,16.30
2019-02-21T10:33:34.157Z,16.23
2019-02-21T10:37:36.050Z,15.43
2019-02-21T10:41:37.983Z,16.50
2019-02-21T10:45:47.420Z,15.53
2019-02-21T10:49:43.512Z,14.70
2019-02-21T10:53:45.433Z,14.43
2019-02-21T10:57:47.792Z,13.87
2019-02-21T11:01:49.696Z,15.60
2019-02-21T11:05:51.601Z,14.97
2019-02-21T11:09:53.496Z,15.93
2019-02-21T11:13:55.413Z,15.47
2019-02-21T11:17:57.352Z,14.30
2019-02-21T11:21:59.261Z,12.70
2019-02-21T11:26:01.739Z,15.33
2019-02-21T11:30:05.095Z,14.70
2019-02-21T11:34:07.012Z,15.47
2019-02-21T11:38:08.969Z,13.53
2019-02-21T11:42:10.883Z,14.63
2019-02-21T11:46:12.771Z,13.87
2019-02-21T11:50:17.299Z,13.23
2019-02-21T11:54:26.483Z,14.03
2019-02-21T11:58:22.856Z,14.03
2019-02-21T12:02:26.029Z,15.17
2019-02-21T12:06:27.959Z,14.27
2019-02-21T12:10:29.875Z,15.20
2019-02-21T12:14:31.794Z,17.00
2019-02-21T12:18:33.726Z,16.43
2019-02-21T12:22:35.694Z,13.97
2019-02-21T12:26:37.546Z,16.32
2019-02-21T12:30:39.465Z,17.80
2019-02-21T12:34:41.394Z,14.67
2019-02-21T12:38:43.344Z,15.73
2019-02-21T12:42:45.273Z,14.30
2019-02-21T12:46:47.243Z,14.73
2019-02-21T12:50:49.140Z,13.50
2019-02-21T12:54:51.856Z,14.00
2019-02-21T12:58:54.822Z,13.10
2019-02-21T13:02:56.754Z,12.43
2019-02-21T13:06:58.670Z,11.43
2019-02-21T13:11:00.595Z,10.33
2019-02-21T13:15:02.517Z,11.63
2019-02-21T13:19:04.501Z,12.13
2019-02-21T13:23:06.427Z,11.93
2019-02-21T13:27:08.329Z,10.77
2019-02-21T13:31:10.247Z,11.93
2019-02-21T13:35:15.341Z,11.10
2019-02-21T13:39:17.243Z,10.30
2019-02-21T13:43:23.791Z,11.13
2019-02-21T13:47:26.276Z,12.03
2019-02-21T13:51:28.199Z,11.10
2019-02-21T13:55:30.116Z,12.67
2019-02-21T13:59:34.783Z,12.05
2019-02-21T14:03:35.708Z,12.13
2019-02-21T14:07:37.604Z,15.83
2019-02-21T14:11:39.569Z,12.80
2019-02-21T14:15:41.563Z,11.63
2019-02-21T14:19:44.451Z,13.17
2019-02-21T14:23:47.351Z,15.43
2019-02-21T14:27:49.269Z,12.00
2019-02-21T14:31:51.220Z,10.67
2019-02-21T14:35:53.111Z,9.97
2019-02-21T14:39:55.051Z,9.83
2019-02-21T14:43:56.942Z,10.73
2019-02-21T14:47:58.852Z,12.10
2019-02-21T14:52:02.011Z,10.73
2019-02-21T14:56:04.088Z,10.70
2019-02-21T15:00:16.116Z,14.27
2019-02-21T15:04:18.269Z,11.17
2019-02-21T15:08:22.205Z,11.77
2019-02-21T15:12:24.141Z,10.70
2019-02-21T15:16:26.336Z,11.10
2019-02-21T15:20:36.369Z,10.68
2019-02-21T15:24:31.852Z,11.37
2019-02-21T15:28:33.759Z,10.93
2019-02-21T15:32:35.659Z,11.53
2019-02-21T15:36:38.499Z,11.10
2019-02-21T15:40:43.410Z,12.85
2019-02-21T15:44:45.253Z,10.10
2019-02-21T15:48:47.157Z,9.97
2019-02-21T15:52:49.539Z,10.73
2019-02-21T15:56:51.527Z,10.97
2019-02-21T16:00:53.448Z,12.10
2019-02-21T16:04:55.346Z,11.47
2019-02-21T16:08:57.260Z,10.50
2019-02-21T16:12:59.540Z,10.77
2019-02-21T16:17:01.760Z,7.93
2019-02-21T16:21:03.646Z,10.97
2019-02-21T16:25:12.693Z,12.07
2019-02-21T16:29:14.706Z,11.00
2019-02-21T16:33:16.614Z,9.83
2019-02-21T16:37:18.502Z,6.47
2019-02-21T16:41:20.425Z,10.87
2019-02-21T16:45:23.428Z,13.00
2019-02-21T16:49:26.298Z,10.05
2019-02-21T16:53:28.290Z,10.83
2019-02-21T16:57:30.195Z,9.03
2019-02-21T17:01:32.084Z,11.48
2019-02-21T17:05:34.237Z,8.73
2019-02-21T17:09:36.145Z,8.37
2019-02-21T17:13:39.143Z,13.13
2019-02-21T17:17:41.035Z,10.78
2019-02-21T17:21:42.937Z,12.67
2019-02-21T17:25:44.833Z,10.57
2019-02-21T17:29:46.745Z,11.27
2019-02-21T17:33:48.646Z,10.17
2019-02-21T17:37:50.548Z,12.57
2019-02-21T17:41:52.519Z,8.17
2019-02-21T17:45:54.465Z,12.70
2019-02-21T17:49:56.370Z,10.60
2019-02-21T17:53:58.331Z,11.00
2019-02-21T17:58:00.236Z,22.63
2019-02-21T18:02:02.251Z,15.73
2019-02-21T18:06:04.163Z,11.73
2019-02-21T18:10:13.546Z,13.10
2019-02-21T18:14:15.448Z,13.33
2019-02-21T18:18:17.464Z,13.83
2019-02-21T18:22:19.411Z,14.27
2019-02-21T18:26:21.323Z,12.93
2019-02-21T18:30:23.895Z,14.33
2019-02-21T18:34:26.402Z,15.23
2019-02-21T18:38:28.456Z,15.63
2019-02-21T18:42:30.369Z,15.13
2019-02-21T18:46:32.272Z,15.28
2019-02-21T18:50:38.267Z,15.43
2019-02-21T18:54:37.775Z,15.63
2019-02-21T18:58:39.695Z,16.80
2019-02-21T19:02:42.567Z,15.80
2019-02-21T19:06:44.466Z,15.83
2019-02-21T19:10:46.378Z,15.30
2019-02-21T19:14:48.292Z,17.10
2019-02-21T19:18:50.199Z,16.47
2019-02-21T19:22:52.104Z,17.43
2019-02-21T19:26:53.991Z,15.53
2019-02-21T19:31:06.104Z,17.07
2019-02-21T19:35:09.564Z,10.27
2019-02-21T19:39:12.503Z,15.20
2019-02-21T19:43:14.433Z,17.20
2019-02-21T19:47:16.311Z,15.33
2019-02-21T19:51:18.212Z,17.43
2019-02-21T19:55:20.125Z,15.00
2019-02-21T19:59:22.040Z,16.10
2019-02-21T20:03:24.091Z,16.00
2019-02-21T20:07:26.525Z,19.13
2019-02-21T20:11:29.305Z,16.30
2019-02-21T20:15:31.317Z,15.45
2019-02-21T20:19:33.280Z,19.73
2019-02-21T20:23:35.179Z,18.37
2019-02-21T20:27:37.086Z,17.63
2019-02-21T20:31:38.991Z,20.80
2019-02-21T20:35:40.883Z,21.90
2019-02-21T20:39:42.791Z,21.77
2019-02-21T20:43:44.697Z,21.87
2019-02-21T20:47:46.614Z,21.27
2019-02-21T20:51:48.496Z,20.35
2019-02-21T20:55:50.415Z,20.67
2019-02-21T20:59:52.316Z,22.10
2019-02-21T21:03:54.248Z,22.23
2019-02-21T21:07:56.158Z,21.13
2019-02-21T21:11:58.113Z,22.23
2019-02-21T21:16:00.022Z,22.93
2019-02-21T21:20:01.934Z,22.60
2019-02-21T21:24:05.437Z,23.62
2019-02-21T21:28:07.457Z,21.40
2019-02-21T21:32:10.242Z,20.17
2019-02-21T21:36:12.132Z,23.53
2019-02-21T21:40:17.074Z,22.17
2019-02-21T21:44:18.991Z,23.13
2019-02-21T21:48:20.906Z,23.17
2019-02-21T21:52:22.894Z,24.07
2019-02-21T21:56:24.791Z,23.70
2019-02-21T22:00:26.956Z,23.13
2019-02-21T22:04:28.848Z,21.60
2019-02-21T22:08:30.779Z,22.82
2019-02-21T22:12:32.801Z,24.67
2019-02-21T22:16:34.707Z,24.40
2019-02-21T22:20:37.377Z,25.55
2019-02-21T22:24:39.269Z,25.70
2019-02-21T22:28:41.206Z,26.55
2019-02-21T22:32:43.108Z,26.97
2019-02-21T22:36:45.015Z,26.43
2019-02-21T22:40:46.977Z,25.63
2019-02-21T22:44:48.861Z,27.27
2019-02-21T22:48:50.804Z,26.47
2019-02-21T22:52:52.691Z,26.77
2019-02-21T22:56:54.805Z,27.67
2019-02-21T23:01:01.669Z,25.03
2019-02-21T23:05:23.571Z,26.77
2019-02-21T23:09:28.222Z,27.50
2019-02-21T23:13:30.294Z,26.23
2019-02-21T23:17:32.190Z,28.65
2019-02-21T23:21:34.180Z,26.70
2019-02-21T23:25:36.092Z,29.27
2019-02-21T23:29:38.196Z,27.02
2019-02-21T23:33:41.727Z,28.07
2019-02-21T23:37:43.624Z,26.37
2019-02-21T23:41:45.561Z,27.50
2019-02-21T23:45:47.451Z,25.53
2019-02-21T23:49:49.364Z,22.50
2019-02-21T23:53:51.308Z,27.23
2019-02-21T23:57:53.605Z,26.33
